createdAt,value
2018-04-12T00:00:16.392Z,4.10
2018-04-12T00:02:43.970Z,6.37
2018-04-12T00:05:11.480Z,6.37
2018-04-12T00:07:39.033Z,3.40
2018-04-12T00:10:07.294Z,10.20
2018-04-12T00:12:34.934Z,5.67
2018-04-12T00:15:02.543Z,5.13
2018-04-12T00:17:30.046Z,5.07
2018-04-12T00:19:57.580Z,8.03
2018-04-12T00:22:25.092Z,6.47
2018-04-12T00:24:52.793Z,6.53
2018-04-12T00:27:20.534Z,5.67
2018-04-12T00:29:48.995Z,4.37
2018-04-12T00:32:17.417Z,3.57
2018-04-12T00:34:45.493Z,7.03
2018-04-12T00:37:13.223Z,6.10
2018-04-12T00:39:40.928Z,5.90
2018-04-12T00:42:08.661Z,3.97
2018-04-12T00:44:36.384Z,4.97
2018-04-12T00:47:04.031Z,5.87
2018-04-12T00:49:31.716Z,4.20
2018-04-12T00:51:59.370Z,5.07
2018-04-12T00:54:27.976Z,3.37
2018-04-12T00:56:55.694Z,6.73
2018-04-12T00:59:23.288Z,6.07
2018-04-12T01:01:50.992Z,5.27
2018-04-12T01:04:18.647Z,6.10
2018-04-12T01:06:46.311Z,7.97
2018-04-12T01:09:14.005Z,9.20
2018-04-12T01:11:41.713Z,4.90
2018-04-12T01:14:09.398Z,6.30
2018-04-12T01:16:37.156Z,4.17
2018-04-12T01:19:04.793Z,4.73
2018-04-12T01:21:32.421Z,5.63
2018-04-12T01:24:00.039Z,4.23
2018-04-12T01:26:29.473Z,3.40
2018-04-12T01:28:57.169Z,5.43
2018-04-12T01:31:24.871Z,5.47
2018-04-12T01:33:52.533Z,4.57
2018-04-12T01:36:20.149Z,9.80
2018-04-12T01:38:47.840Z,5.00
2018-04-12T01:41:17.239Z,6.33
2018-04-12T01:43:44.991Z,3.20
2018-04-12T01:46:12.709Z,4.30
2018-04-12T01:48:40.456Z,5.07
2018-04-12T01:51:08.920Z,3.30
2018-04-12T01:53:36.682Z,5.00
2018-04-12T01:56:05.890Z,4.97
2018-04-12T01:58:34.521Z,3.60
2018-04-12T02:01:02.150Z,5.87
2018-04-12T02:03:29.842Z,9.23
2018-04-12T02:05:57.636Z,7.83
2018-04-12T02:08:25.328Z,5.00
2018-04-12T02:10:54.450Z,4.87
2018-04-12T02:13:22.933Z,4.90
2018-04-12T02:15:50.487Z,3.33
2018-04-12T02:18:18.239Z,5.47
2018-04-12T02:20:46.586Z,3.33
2018-04-12T02:23:15.804Z,3.57
2018-04-12T02:25:43.561Z,3.40
2018-04-12T02:28:11.236Z,4.03
2018-04-12T02:30:39.527Z,7.03
2018-04-12T02:33:08.562Z,5.27
2018-04-12T02:35:36.217Z,4.57
2018-04-12T02:38:03.973Z,4.83
2018-04-12T02:40:33.691Z,3.60
2018-04-12T02:43:01.995Z,5.87
2018-04-12T02:45:30.456Z,8.03
2018-04-12T02:47:58.147Z,3.87
2018-04-12T02:50:26.656Z,5.80
2018-04-12T02:52:54.438Z,7.03
2018-04-12T02:55:22.132Z,4.57
2018-04-12T02:57:49.783Z,3.47
2018-04-12T03:00:17.452Z,10.03
2018-04-12T03:02:45.050Z,5.37
2018-04-12T03:05:12.710Z,4.17
2018-04-12T03:07:40.466Z,7.57
2018-04-12T03:10:08.934Z,4.43
2018-04-12T03:12:36.644Z,3.77
2018-04-12T03:15:04.420Z,4.27
2018-04-12T03:17:33.351Z,5.33
2018-04-12T03:20:01.185Z,5.10
2018-04-12T03:22:28.884Z,11.70
2018-04-12T03:24:57.430Z,6.40
2018-04-12T03:27:59.212Z,8.93
2018-04-12T03:30:26.895Z,5.77
2018-04-12T03:32:54.585Z,6.07
2018-04-12T03:35:22.992Z,3.87
2018-04-12T03:37:50.685Z,5.57
2018-04-12T03:40:18.329Z,5.53
2018-04-12T03:42:46.059Z,7.40
2018-04-12T03:45:13.804Z,3.80
2018-04-12T03:47:42.593Z,4.10
2018-04-12T03:50:11.023Z,3.50
2018-04-12T03:52:38.686Z,4.03
2018-04-12T03:55:06.485Z,6.50
2018-04-12T03:57:34.205Z,5.20
2018-04-12T04:00:02.009Z,7.23
2018-04-12T04:02:29.894Z,7.00
2018-04-12T04:04:57.535Z,9.70
2018-04-12T04:07:26.024Z,5.60
2018-04-12T04:09:54.610Z,5.70
2018-04-12T04:12:22.569Z,6.83
2018-04-12T04:18:05.082Z,5.07
2018-04-12T04:20:44.599Z,5.50
2018-04-12T04:23:14.296Z,4.20
2018-04-12T04:25:41.964Z,5.07
2018-04-12T04:28:09.753Z,5.97
2018-04-12T04:30:37.475Z,6.43
2018-04-12T04:33:05.114Z,7.97
2018-04-12T04:35:33.391Z,9.03
2018-04-12T04:38:01.059Z,10.40
2018-04-12T04:40:29.795Z,8.30
2018-04-12T04:42:57.526Z,6.43
2018-04-12T04:45:26.004Z,6.63
2018-04-12T04:47:54.405Z,10.13
2018-04-12T04:50:22.167Z,6.40
2018-04-12T04:52:49.785Z,8.60
2018-04-12T04:55:17.522Z,4.37
2018-04-12T04:57:45.221Z,3.30
2018-04-12T05:00:13.128Z,4.87
2018-04-12T05:02:40.870Z,8.60
2018-04-12T05:05:10.199Z,6.20
2018-04-12T05:07:37.941Z,7.70
2018-04-12T05:10:05.711Z,4.83
2018-04-12T05:12:34.289Z,6.77
2018-04-12T05:15:02.091Z,7.30
2018-04-12T05:17:29.935Z,6.40
2018-04-12T05:19:58.503Z,13.40
2018-04-12T05:22:27.393Z,12.63
2018-04-12T05:24:55.189Z,10.10
2018-04-12T05:27:23.641Z,6.97
2018-04-12T05:29:51.304Z,8.83
2018-04-12T05:32:19.015Z,8.80
2018-04-12T05:34:47.525Z,9.83
2018-04-12T05:37:16.487Z,7.17
2018-04-12T05:39:44.280Z,6.63
2018-04-12T05:42:13.450Z,9.53
2018-04-12T05:44:41.177Z,9.43
2018-04-12T05:47:08.808Z,11.00
2018-04-12T05:49:37.411Z,9.67
2018-04-12T05:52:05.265Z,8.13
2018-04-12T05:54:33.198Z,8.83
2018-04-12T05:57:00.953Z,12.23
2018-04-12T05:59:29.691Z,7.83
2018-04-12T06:01:58.294Z,5.77
2018-04-12T06:04:30.490Z,6.27
2018-04-12T06:06:58.334Z,12.33
2018-04-12T06:09:26.099Z,6.63
2018-04-12T06:11:55.029Z,6.73
2018-04-12T06:14:22.828Z,9.80
2018-04-12T06:16:50.459Z,7.87
2018-04-12T06:19:18.223Z,5.13
2018-04-12T06:21:46.449Z,10.07
2018-04-12T06:24:14.188Z,6.13
2018-04-12T06:26:41.906Z,9.53
2018-04-12T06:29:09.564Z,8.03
2018-04-12T06:31:37.956Z,7.47
2018-04-12T06:34:05.683Z,7.17
2018-04-12T06:36:36.139Z,6.17
2018-04-12T06:39:04.017Z,8.87
2018-04-12T06:41:32.535Z,6.13
2018-04-12T06:44:01.061Z,9.07
2018-04-12T06:46:28.718Z,6.87
2018-04-12T06:48:56.464Z,8.23
2018-04-12T06:51:24.320Z,8.30
2018-04-12T06:53:53.825Z,7.10
2018-04-12T06:56:21.616Z,8.83
2018-04-12T06:58:49.324Z,4.93
2018-04-12T07:01:17.870Z,9.37
2018-04-12T07:03:45.557Z,6.50
2018-04-12T07:06:13.539Z,7.53
2018-04-12T07:08:41.260Z,7.63
2018-04-12T07:11:08.998Z,6.07
2018-04-12T07:13:36.678Z,4.73
2018-04-12T07:16:04.293Z,5.70
2018-04-12T07:18:32.713Z,5.67
2018-04-12T07:21:01.150Z,7.73
2018-04-12T07:23:28.801Z,6.10
2018-04-12T07:25:57.201Z,6.30
2018-04-12T07:28:25.503Z,5.83
2018-04-12T07:30:53.142Z,4.77
2018-04-12T07:33:21.694Z,5.87
2018-04-12T07:35:49.405Z,4.73
2018-04-12T07:38:17.260Z,7.00
2018-04-12T07:40:44.988Z,7.97
2018-04-12T07:43:12.922Z,12.60
2018-04-12T07:45:42.056Z,10.10
2018-04-12T07:48:09.906Z,4.63
2018-04-12T07:50:40.099Z,6.60
2018-04-12T07:53:07.893Z,5.57
2018-04-12T07:55:35.569Z,3.87
2018-04-12T07:58:03.509Z,6.30
2018-04-12T08:00:31.440Z,4.13
2018-04-12T08:02:59.952Z,8.20
2018-04-12T08:05:27.693Z,10.07
2018-04-12T08:07:56.195Z,7.23
2018-04-12T08:10:24.145Z,4.60
2018-04-12T08:12:52.071Z,3.97
2018-04-12T08:15:20.829Z,4.07
2018-04-12T08:17:48.641Z,5.70
2018-04-12T08:20:17.376Z,4.70
2018-04-12T08:22:47.330Z,7.70
2018-04-12T08:25:16.265Z,5.03
2018-04-12T08:27:44.061Z,4.37
2018-04-12T08:30:11.831Z,3.83
2018-04-12T08:32:40.954Z,8.27
2018-04-12T08:35:08.727Z,6.53
2018-04-12T08:37:37.285Z,7.97
2018-04-12T08:40:05.103Z,9.83
2018-04-12T08:42:32.896Z,6.03
2018-04-12T08:45:00.586Z,10.50
2018-04-12T08:47:28.232Z,7.20
2018-04-12T08:49:55.929Z,8.33
2018-04-12T08:52:25.867Z,9.67
2018-04-12T08:54:53.519Z,5.90
2018-04-12T08:57:22.112Z,8.40
2018-04-12T08:59:50.092Z,5.40
2018-04-12T09:02:18.844Z,6.70
2018-04-12T09:04:46.736Z,9.83
2018-04-12T09:07:14.624Z,7.67
2018-04-12T09:09:42.388Z,10.50
2018-04-12T09:12:10.132Z,7.93
2018-04-12T09:14:37.962Z,3.97
2018-04-12T09:17:05.825Z,4.43
2018-04-12T09:19:33.616Z,4.87
2018-04-12T09:22:01.367Z,5.57
2018-04-12T09:24:29.045Z,7.27
2018-04-12T09:26:56.848Z,6.23
2018-04-12T09:29:24.488Z,4.97
2018-04-12T09:31:52.917Z,4.70
2018-04-12T09:34:20.643Z,6.93
2018-04-12T09:36:48.347Z,7.47
2018-04-12T09:39:16.120Z,5.93
2018-04-12T09:41:44.645Z,8.37
2018-04-12T09:44:12.521Z,5.63
2018-04-12T09:46:40.953Z,9.20
2018-04-12T09:49:08.654Z,7.53
2018-04-12T09:51:36.399Z,8.13
2018-04-12T09:54:04.287Z,7.40
2018-04-12T09:56:31.955Z,10.33
2018-04-12T09:58:59.602Z,12.63
2018-04-12T10:01:27.401Z,8.90
2018-04-12T10:03:55.979Z,7.07
2018-04-12T10:06:23.639Z,9.90
2018-04-12T10:08:56.873Z,5.40
2018-04-12T10:11:24.398Z,11.07
2018-04-12T10:13:51.943Z,10.80
2018-04-12T10:16:19.462Z,13.43
2018-04-12T10:18:47.008Z,8.07
2018-04-12T10:21:14.514Z,11.13
2018-04-12T10:23:42.019Z,9.40
2018-04-12T10:26:09.555Z,9.97
2018-04-12T10:28:37.064Z,10.47
2018-04-12T10:31:04.607Z,11.90
2018-04-12T10:33:33.207Z,12.53
2018-04-12T10:36:00.759Z,9.17
2018-04-12T10:38:28.281Z,19.47
2018-04-12T10:40:55.819Z,14.00
2018-04-12T10:43:24.116Z,20.13
2018-04-12T10:45:51.659Z,11.17
2018-04-12T10:48:19.181Z,20.60
2018-04-12T10:50:46.734Z,20.23
2018-04-12T10:53:14.237Z,20.83
2018-04-12T10:55:41.742Z,17.10
2018-04-12T10:58:09.288Z,22.27
2018-04-12T11:00:36.832Z,19.87
2018-04-12T11:03:04.380Z,21.30
2018-04-12T11:05:31.891Z,14.60
2018-04-12T11:07:59.439Z,21.40
2018-04-12T11:10:26.952Z,19.43
2018-04-12T11:12:54.632Z,25.10
2018-04-12T11:15:22.159Z,24.03
2018-04-12T11:17:49.761Z,24.43
2018-04-12T11:20:17.262Z,20.23
2018-04-12T11:22:44.895Z,20.40
2018-04-12T11:25:12.451Z,31.47
2018-04-12T11:27:39.969Z,21.77
2018-04-12T11:30:07.588Z,17.10
2018-04-12T11:32:35.092Z,19.87
2018-04-12T11:35:02.700Z,26.77
2018-04-12T11:37:30.283Z,20.17
2018-04-12T11:39:57.892Z,17.43
2018-04-12T11:42:25.418Z,18.10
2018-04-12T11:44:52.989Z,19.17
2018-04-12T11:47:20.515Z,16.70
2018-04-12T11:49:48.099Z,18.40
2018-04-12T11:52:16.361Z,19.53
2018-04-12T11:54:43.947Z,14.03
2018-04-12T11:57:12.046Z,17.07
2018-04-12T11:59:39.620Z,16.40
2018-04-12T12:02:07.141Z,19.37
2018-04-12T12:04:34.744Z,22.80
2018-04-12T12:07:02.262Z,20.23
2018-04-12T12:09:29.773Z,15.70
2018-04-12T12:11:57.321Z,21.73
2018-04-12T12:14:24.827Z,18.83
2018-04-12T12:16:53.146Z,22.57
2018-04-12T12:19:21.439Z,17.37
2018-04-12T12:21:49.028Z,16.33
2018-04-12T12:24:16.550Z,18.23
2018-04-12T12:26:44.104Z,16.37
2018-04-12T12:29:11.614Z,18.90
2018-04-12T12:31:39.163Z,22.67
2018-04-12T12:34:06.708Z,23.90
2018-04-12T12:36:34.225Z,15.23
2018-04-12T12:39:01.763Z,17.07
2018-04-12T12:41:29.277Z,22.70
2018-04-12T12:43:56.828Z,16.77
2018-04-12T12:46:24.358Z,21.13
2018-04-12T12:48:51.971Z,19.07
2018-04-12T12:51:19.467Z,18.97
2018-04-12T12:53:47.023Z,17.87
2018-04-12T12:56:15.106Z,18.60
2018-04-12T12:58:42.668Z,21.93
2018-04-12T13:01:10.174Z,10.07
2018-04-12T13:03:37.739Z,18.17
2018-04-12T13:06:05.254Z,14.70
2018-04-12T13:08:32.799Z,15.63
2018-04-12T13:11:00.351Z,27.43
2018-04-12T13:13:27.956Z,12.77
2018-04-12T13:15:55.485Z,15.27
2018-04-12T13:18:23.030Z,23.50
2018-04-12T13:20:50.589Z,24.73
2018-04-12T13:23:18.102Z,17.40
2018-04-12T13:25:45.652Z,17.47
2018-04-12T13:28:13.169Z,18.80
2018-04-12T13:30:40.698Z,20.47
2018-04-12T13:33:09.062Z,13.00
2018-04-12T13:35:36.539Z,18.97
2018-04-12T13:38:04.820Z,16.30
2018-04-12T13:40:33.138Z,21.03
2018-04-12T13:43:00.643Z,13.47
2018-04-12T13:45:28.325Z,16.10
2018-04-12T13:47:55.831Z,19.40
2018-04-12T13:50:23.380Z,14.57
2018-04-12T13:52:50.934Z,16.50
2018-04-12T13:55:18.498Z,14.67
2018-04-12T13:57:46.086Z,17.93
2018-04-12T14:00:13.614Z,21.70
2018-04-12T14:02:41.167Z,13.47
2018-04-12T14:05:08.716Z,21.40
2018-04-12T14:07:36.298Z,22.63
2018-04-12T14:10:04.308Z,20.80
2018-04-12T14:12:31.854Z,14.03
2018-04-12T14:14:59.364Z,17.83
2018-04-12T14:17:26.923Z,17.10
2018-04-12T14:19:54.435Z,15.37
2018-04-12T14:22:21.966Z,12.17
2018-04-12T14:24:49.483Z,15.30
2018-04-12T14:27:17.089Z,15.43
2018-04-12T14:29:44.653Z,21.73
2018-04-12T14:32:12.148Z,16.43
2018-04-12T14:34:39.705Z,24.00
2018-04-12T14:37:07.209Z,17.93
2018-04-12T14:39:34.751Z,17.50
2018-04-12T14:42:02.258Z,20.17
2018-04-12T14:44:29.852Z,18.50
2018-04-12T14:46:58.133Z,21.67
2018-04-12T14:49:26.501Z,21.63
2018-04-12T14:51:54.013Z,19.93
2018-04-12T14:54:21.577Z,17.23
2018-04-12T14:56:49.098Z,19.20
2018-04-12T14:59:16.644Z,16.87
2018-04-12T15:01:44.984Z,19.67
2018-04-12T15:04:12.520Z,16.73
2018-04-12T15:06:40.093Z,15.67
2018-04-12T15:09:07.636Z,17.07
2018-04-12T15:11:35.173Z,17.43
2018-04-12T15:14:02.736Z,18.27
2018-04-12T15:16:30.272Z,20.53
2018-04-12T15:18:58.567Z,10.93
2018-04-12T15:21:26.120Z,20.57
2018-04-12T15:23:53.632Z,22.53
2018-04-12T15:26:21.171Z,16.90
2018-04-12T15:28:48.681Z,18.67
2018-04-12T15:31:16.236Z,20.90
2018-04-12T15:33:43.759Z,25.10
2018-04-12T15:36:11.295Z,27.73
2018-04-12T15:38:38.815Z,26.27
2018-04-12T15:41:06.371Z,17.17
2018-04-12T15:43:33.878Z,14.90
2018-04-12T15:46:01.899Z,22.60
2018-04-12T15:48:29.458Z,23.40
2018-04-12T15:50:56.980Z,23.10
2018-04-12T15:53:24.548Z,21.47
2018-04-12T15:55:52.098Z,29.60
2018-04-12T15:58:19.636Z,25.53
2018-04-12T16:00:47.160Z,20.90
2018-04-12T16:03:14.722Z,21.27
2018-04-12T16:05:42.219Z,15.53
2018-04-12T16:08:09.756Z,19.03
2018-04-12T16:10:37.268Z,17.53
2018-04-12T16:13:04.819Z,18.97
2018-04-12T16:15:32.369Z,19.20
2018-04-12T16:18:00.036Z,20.33
2018-04-12T16:20:27.612Z,14.33
2018-04-12T16:22:55.202Z,18.37
2018-04-12T16:25:23.573Z,19.17
2018-04-12T16:27:52.020Z,15.53
2018-04-12T16:30:19.708Z,19.20
2018-04-12T16:32:47.429Z,20.60
2018-04-12T16:35:15.028Z,21.57
2018-04-12T16:37:42.728Z,16.07
2018-04-12T16:40:11.144Z,18.47
2018-04-12T16:42:38.824Z,22.03
2018-04-12T16:45:06.518Z,13.73
2018-04-12T16:47:34.134Z,22.17
2018-04-12T16:50:01.821Z,18.87
2018-04-12T16:52:29.611Z,14.37
2018-04-12T16:54:58.157Z,26.50
2018-04-12T16:57:25.972Z,23.17
2018-04-12T16:59:53.790Z,16.30
2018-04-12T17:02:21.389Z,14.50
2018-04-12T17:04:49.032Z,18.20
2018-04-12T17:07:16.644Z,18.63
2018-04-12T17:09:44.345Z,23.23
2018-04-12T17:12:12.036Z,15.90
2018-04-12T17:14:40.447Z,25.33
2018-04-12T17:17:08.227Z,26.73
2018-04-12T17:19:35.925Z,16.20
2018-04-12T17:22:03.713Z,19.23
2018-04-12T17:24:31.391Z,18.63
2018-04-12T17:26:59.103Z,23.73
2018-04-12T17:29:27.487Z,21.90
2018-04-12T17:31:55.189Z,24.17
2018-04-12T17:34:22.780Z,28.47
2018-04-12T17:36:50.745Z,15.10
2018-04-12T17:39:19.676Z,20.00
2018-04-12T17:41:47.559Z,18.80
2018-04-12T17:44:15.373Z,17.67
2018-04-12T17:46:43.035Z,24.40
2018-04-12T17:49:10.627Z,22.00
2018-04-12T17:51:38.182Z,22.53
2018-04-12T17:54:05.772Z,30.97
2018-04-12T17:56:33.380Z,25.17
2018-04-12T17:59:00.975Z,22.50
2018-04-12T18:01:28.541Z,15.13
2018-04-12T18:03:56.147Z,23.23
2018-04-12T18:06:23.709Z,20.73
2018-04-12T18:08:51.304Z,20.60
2018-04-12T18:11:18.904Z,27.70
2018-04-12T18:13:46.508Z,25.03
2018-04-12T18:16:14.079Z,22.23
2018-04-12T18:18:41.671Z,29.03
2018-04-12T18:21:09.252Z,19.60
2018-04-12T18:23:36.831Z,23.47
2018-04-12T18:26:04.384Z,26.93
2018-04-12T18:28:31.923Z,26.13
2018-04-12T18:31:00.286Z,20.20
2018-04-12T18:33:27.835Z,18.70
2018-04-12T18:35:55.461Z,20.33
2018-04-12T18:38:23.833Z,24.70
2018-04-12T18:40:55.180Z,38.47
2018-04-12T18:43:23.785Z,26.90
2018-04-12T18:45:51.428Z,29.00
2018-04-12T18:48:18.969Z,24.50
2018-04-12T18:50:47.542Z,20.50
2018-04-12T18:53:15.153Z,19.27
2018-04-12T18:55:42.694Z,18.60
2018-04-12T18:58:10.310Z,18.10
2018-04-12T19:00:37.903Z,21.67
2018-04-12T19:03:05.594Z,19.20
2018-04-12T19:05:34.725Z,32.23
2018-04-12T19:08:03.070Z,22.83
2018-04-12T19:10:31.446Z,44.33
2018-04-12T19:12:59.888Z,47.73
2018-04-12T19:15:27.468Z,257.37
2018-04-12T19:17:55.898Z,485.77
2018-04-12T19:20:24.287Z,271.33
2018-04-12T19:22:53.677Z,163.90
2018-04-12T19:25:21.278Z,166.93
2018-04-12T19:27:49.695Z,124.23
2018-04-12T19:30:17.265Z,98.43
2018-04-12T19:32:44.908Z,44.73
2018-04-12T19:35:12.572Z,49.37
2018-04-12T19:37:40.188Z,40.47
2018-04-12T19:40:07.817Z,36.17
2018-04-12T19:42:35.409Z,31.83
2018-04-12T19:45:03.810Z,37.90
2018-04-12T19:47:31.432Z,21.27
2018-04-12T19:49:58.991Z,22.10
2018-04-12T19:52:27.385Z,20.57
2018-04-12T19:54:55.027Z,26.27
2018-04-12T19:57:22.653Z,24.03
2018-04-12T19:59:51.146Z,21.03
2018-04-12T20:02:18.751Z,21.20
2018-04-12T20:04:47.170Z,25.17
2018-04-12T20:07:14.765Z,25.17
2018-04-12T20:09:43.593Z,18.83
2018-04-12T20:12:11.134Z,20.00
2018-04-12T20:14:38.721Z,23.47
2018-04-12T20:17:06.317Z,19.47
2018-04-12T20:19:33.957Z,25.97
2018-04-12T20:22:01.495Z,23.07
2018-04-12T20:24:30.065Z,14.00
2018-04-12T20:26:57.774Z,30.33
2018-04-12T20:29:25.376Z,23.43
2018-04-12T20:31:53.001Z,19.57
2018-04-12T20:34:20.668Z,23.93
2018-04-12T20:36:48.268Z,23.43
2018-04-12T20:39:15.856Z,16.73
2018-04-12T20:41:43.413Z,21.93
2018-04-12T20:44:11.047Z,32.67
2018-04-12T20:46:39.406Z,17.07
2018-04-12T20:49:06.954Z,23.50
2018-04-12T20:51:34.523Z,21.37
2018-04-12T20:54:02.138Z,22.07
2018-04-12T20:56:29.700Z,19.73
2018-04-12T20:58:57.284Z,21.03
2018-04-12T21:01:24.868Z,19.43
2018-04-12T21:03:52.406Z,20.07
2018-04-12T21:06:19.980Z,18.97
2018-04-12T21:08:47.538Z,19.53
2018-04-12T21:11:15.896Z,18.77
2018-04-12T21:13:43.446Z,20.33
2018-04-12T21:16:11.027Z,25.20
2018-04-12T21:18:38.566Z,28.33
2018-04-12T21:21:06.166Z,26.17
2018-04-12T21:23:33.709Z,20.07
2018-04-12T21:26:01.268Z,21.70
2018-04-12T21:28:30.664Z,23.83
2018-04-12T21:30:58.189Z,25.93
2018-04-12T21:33:25.786Z,24.67
2018-04-12T21:35:53.295Z,19.40
2018-04-12T21:38:20.888Z,16.90
2018-04-12T21:40:48.443Z,16.47
2018-04-12T21:43:16.022Z,27.37
2018-04-12T21:45:43.568Z,16.87
2018-04-12T21:48:11.130Z,21.13
2018-04-12T21:50:38.648Z,19.70
2018-04-12T21:53:06.997Z,24.57
2018-04-12T21:55:34.526Z,15.37
2018-04-12T21:58:02.115Z,17.47
2018-04-12T22:00:29.686Z,15.83
2018-04-12T22:02:57.237Z,19.37
2018-04-12T22:05:36.363Z,19.00
2018-04-12T22:08:03.877Z,22.53
2018-04-12T22:10:31.484Z,24.80
2018-04-12T22:12:59.019Z,28.80
2018-04-12T22:15:27.383Z,13.47
2018-04-12T22:17:54.898Z,24.77
2018-04-12T22:20:22.469Z,23.43
2018-04-12T22:22:50.761Z,21.93
2018-04-12T22:25:18.353Z,21.87
2018-04-12T22:27:45.900Z,18.00
2018-04-12T22:30:13.495Z,17.60
2018-04-12T22:32:41.034Z,24.50
2018-04-12T22:35:08.608Z,16.37
2018-04-12T22:37:36.143Z,20.77
2018-04-12T22:40:04.160Z,23.93
2018-04-12T22:42:31.696Z,22.17
2018-04-12T22:45:00.010Z,24.83
2018-04-12T22:50:19.117Z,23.07
2018-04-12T22:52:46.633Z,15.97
2018-04-12T22:55:14.143Z,19.67
2018-04-12T22:57:41.687Z,21.40
2018-04-12T23:00:09.834Z,17.77
2018-04-12T23:02:37.419Z,15.43
2018-04-12T23:05:04.955Z,23.20
2018-04-12T23:07:32.540Z,20.30
2018-04-12T23:10:00.076Z,16.07
2018-04-12T23:12:27.641Z,18.83
2018-04-12T23:14:55.954Z,28.00
2018-04-12T23:17:23.522Z,18.53
2018-04-12T23:19:51.068Z,15.90
2018-04-12T23:22:18.669Z,20.23
2018-04-12T23:24:46.269Z,19.37
2018-04-12T23:27:13.851Z,24.10
2018-04-12T23:29:41.385Z,29.10
2018-04-12T23:32:09.001Z,15.50
2018-04-12T23:34:36.587Z,21.73
2018-04-12T23:37:04.200Z,19.00
2018-04-12T23:39:31.744Z,24.37
2018-04-12T23:41:59.325Z,22.23
2018-04-12T23:44:26.911Z,24.07
2018-04-12T23:46:55.244Z,18.20
2018-04-12T23:49:22.853Z,21.27
2018-04-12T23:51:50.407Z,21.13
2018-04-12T23:54:17.973Z,23.20
2018-04-12T23:56:45.528Z,24.17
2018-04-12T23:59:13.167Z,16.43
